Time;durP1;ratioP1;P1;durP2;ratioP2;P2;SDS_P1;SDS_P2;PMS_P1;PMS_P2;Temp;Humidity;BMP_temperature;BMP_pressure;BME280_temperature;BME280_humidity;BME280_pressure;Samples;Min_cycle;Max_cycle;Signal;HPM_P1;HPM_P2
2022/09/22 00:00:53;;;;;;;4.00;3.60;;;;;;;;;;615276;228;26580;-72
2022/09/22 00:03:22;;;;;;;3.85;3.30;;;;;;;;;;614947;231;26595;-74
2022/09/22 00:06:06;;;;;;;4.68;3.80;;;;;;;;;;615133;226;26896;-74
2022/09/22 00:08:35;;;;;;;4.07;3.53;;;;;;;;;;615899;231;26790;-74
2022/09/22 00:11:05;;;;;;;4.15;3.75;;;;;;;;;;615258;226;26551;-73
2022/09/22 00:13:34;;;;;;;3.40;3.10;;;;;;;;;;615562;230;26586;-73
2022/09/22 00:16:03;;;;;;;3.70;3.40;;;;;;;;;;616909;228;26614;-73
2022/09/22 00:18:32;;;;;;;3.60;3.30;;;;;;;;;;615195;231;26591;-73
2022/09/22 00:21:11;;;;;;;3.87;3.47;;;;;;;;;;616052;228;26564;-64
2022/09/22 00:23:38;;;;;;;3.62;3.33;;;;;;;;;;615678;231;26944;-62
2022/09/22 00:26:07;;;;;;;3.15;2.85;;;;;;;;;;614383;226;26563;-64
2022/09/22 00:28:35;;;;;;;3.12;2.83;;;;;;;;;;616708;227;26646;-64
2022/09/22 00:31:04;;;;;;;3.20;2.90;;;;;;;;;;618182;227;26617;-72
2022/09/22 00:33:33;;;;;;;3.20;3.00;;;;;;;;;;618309;230;26572;-73
2022/09/22 00:36:02;;;;;;;3.78;3.33;;;;;;;;;;615696;230;26579;-72
2022/09/22 00:38:32;;;;;;;3.40;3.10;;;;;;;;;;619384;230;26581;-72
2022/09/22 00:41:00;;;;;;;3.20;2.90;;;;;;;;;;618625;230;26664;-73
2022/09/22 00:43:29;;;;;;;3.20;2.90;;;;;;;;;;618487;230;26651;-72
2022/09/22 00:46:08;;;;;;;3.45;3.00;;;;;;;;;;616503;230;27026;-73
2022/09/22 00:48:38;;;;;;;2.87;2.67;;;;;;;;;;615275;227;26617;-73
2022/09/22 00:51:05;;;;;;;3.50;3.20;;;;;;;;;;615369;231;26623;-73
2022/09/22 00:53:35;;;;;;;3.33;3.03;;;;;;;;;;618378;226;26567;-73
2022/09/22 00:56:07;;;;;;;3.08;2.78;;;;;;;;;;616595;230;26798;-73
2022/09/22 00:58:36;;;;;;;3.10;2.80;;;;;;;;;;618550;227;26552;-73
2022/09/22 01:01:07;;;;;;;3.20;2.90;;;;;;;;;;616971;227;26793;-73
2022/09/22 01:03:34;;;;;;;2.85;2.65;;;;;;;;;;616818;230;26919;-73
2022/09/22 01:06:04;;;;;;;3.05;2.85;;;;;;;;;;616735;231;26574;-72
2022/09/22 01:08:32;;;;;;;3.22;3.00;;;;;;;;;;617229;231;26581;-72
2022/09/22 01:11:00;;;;;;;3.10;2.80;;;;;;;;;;617026;231;26619;-72
2022/09/22 01:13:30;;;;;;;2.92;2.70;;;;;;;;;;617803;231;26675;-73
2022/09/22 01:16:00;;;;;;;3.30;2.70;;;;;;;;;;615555;231;26572;-73
2022/09/22 01:18:31;;;;;;;3.15;2.67;;;;;;;;;;614751;231;26572;-72
2022/09/22 01:21:06;;;;;;;2.72;2.53;;;;;;;;;;613467;234;26869;-72
2022/09/22 01:23:37;;;;;;;2.83;2.50;;;;;;;;;;616090;230;26644;-73
2022/09/22 01:26:06;;;;;;;2.75;2.55;;;;;;;;;;613065;234;26593;-73
2022/09/22 01:28:53;;;;;;;2.72;2.53;;;;;;;;;;614734;231;26834;-73
2022/09/22 01:31:22;;;;;;;2.85;2.58;;;;;;;;;;610277;231;26840;-72
2022/09/22 01:33:52;;;;;;;2.67;2.47;;;;;;;;;;615687;231;27247;-72
2022/09/22 01:36:31;;;;;;;2.47;2.33;;;;;;;;;;614476;231;26575;-72
2022/09/22 01:39:01;;;;;;;2.55;2.35;;;;;;;;;;614397;231;26815;-73
2022/09/22 01:41:34;;;;;;;2.92;2.72;;;;;;;;;;620064;228;26611;-72
2022/09/22 01:44:03;;;;;;;2.95;2.62;;;;;;;;;;615952;231;26847;-72
2022/09/22 01:46:33;;;;;;;2.42;2.33;;;;;;;;;;617881;230;26575;-72
2022/09/22 01:49:02;;;;;;;2.45;2.30;;;;;;;;;;617674;230;26590;-72
2022/09/22 01:51:31;;;;;;;2.55;2.35;;;;;;;;;;615348;231;26818;-72
2022/09/22 01:53:59;;;;;;;2.65;2.37;;;;;;;;;;615009;230;26604;-73
2022/09/22 01:56:29;;;;;;;2.65;2.45;;;;;;;;;;617079;230;27048;-73
2022/09/22 01:58:59;;;;;;;2.60;2.40;;;;;;;;;;618343;230;26801;-73
2022/09/22 02:01:27;;;;;;;2.80;2.60;;;;;;;;;;616550;230;26606;-73
2022/09/22 02:03:58;;;;;;;3.08;2.60;;;;;;;;;;618178;230;26567;-73
2022/09/22 02:06:33;;;;;;;2.33;2.22;;;;;;;;;;615680;231;26847;-73
2022/09/22 02:09:02;;;;;;;2.40;2.20;;;;;;;;;;614420;231;26790;-73
2022/09/22 02:11:30;;;;;;;2.50;2.30;;;;;;;;;;615131;231;26572;-73
2022/09/22 02:13:59;;;;;;;3.25;2.47;;;;;;;;;;619963;230;27296;-73
2022/09/22 02:16:28;;;;;;;2.85;2.65;;;;;;;;;;616963;231;26560;-73
2022/09/22 02:18:59;;;;;;;2.72;2.53;;;;;;;;;;616685;231;26571;-72
2022/09/22 02:21:28;;;;;;;2.40;2.20;;;;;;;;;;614668;231;26582;-72
2022/09/22 02:23:56;;;;;;;3.60;2.55;;;;;;;;;;617885;231;26831;-72
2022/09/22 02:26:25;;;;;;;2.90;2.70;;;;;;;;;;617083;231;26613;-72
2022/09/22 02:28:54;;;;;;;2.60;2.40;;;;;;;;;;614832;231;26888;-73
2022/09/22 02:31:23;;;;;;;2.47;2.12;;;;;;;;;;615055;231;26585;-73
2022/09/22 02:33:53;;;;;;;2.90;2.70;;;;;;;;;;614795;231;26988;-73
2022/09/22 02:36:23;;;;;;;1.90;1.80;;;;;;;;;;615390;231;26614;-73
2022/09/22 02:38:52;;;;;;;2.65;2.45;;;;;;;;;;616302;231;26570;-73
2022/09/22 02:41:22;;;;;;;2.53;2.33;;;;;;;;;;619942;231;26856;-73
2022/09/22 02:44:01;;;;;;;2.20;2.10;;;;;;;;;;612577;235;26601;-73
2022/09/22 02:46:31;;;;;;;2.33;2.20;;;;;;;;;;613020;231;27027;-73
2022/09/22 02:49:00;;;;;;;2.47;2.28;;;;;;;;;;613721;234;26590;-72
2022/09/22 02:51:29;;;;;;;2.00;1.90;;;;;;;;;;616524;231;26520;-72
2022/09/22 02:53:58;;;;;;;2.03;1.73;;;;;;;;;;620105;230;26626;-72
2022/09/22 02:56:26;;;;;;;2.10;2.00;;;;;;;;;;616767;230;26805;-72
2022/09/22 02:58:55;;;;;;;2.22;2.10;;;;;;;;;;618431;231;26549;-73
2022/09/22 03:01:24;;;;;;;2.28;2.10;;;;;;;;;;618486;231;26898;-74
2022/09/22 03:03:53;;;;;;;2.03;1.92;;;;;;;;;;621644;231;26621;-72
2022/09/22 03:06:22;;;;;;;2.30;2.10;;;;;;;;;;617957;231;26564;-72
2022/09/22 03:08:51;;;;;;;2.50;2.30;;;;;;;;;;621715;231;26613;-72
2022/09/22 03:11:20;;;;;;;2.05;1.95;;;;;;;;;;622390;230;26561;-72
2022/09/22 03:13:48;;;;;;;1.90;1.80;;;;;;;;;;621807;230;27044;-72
2022/09/22 03:16:17;;;;;;;1.75;1.65;;;;;;;;;;620691;230;26584;-72
2022/09/22 03:18:46;;;;;;;2.22;2.10;;;;;;;;;;615139;228;26867;-72
2022/09/22 03:21:15;;;;;;;1.95;1.85;;;;;;;;;;612909;233;26583;-73
2022/09/22 03:23:44;;;;;;;1.95;1.85;;;;;;;;;;615558;231;26803;-72
2022/09/22 03:26:13;;;;;;;2.00;1.90;;;;;;;;;;615366;231;26542;-72
2022/09/22 03:28:42;;;;;;;1.87;1.73;;;;;;;;;;615667;227;26573;-72
2022/09/22 03:31:10;;;;;;;1.75;1.65;;;;;;;;;;614431;234;26565;-72
2022/09/22 03:33:39;;;;;;;3.60;2.00;;;;;;;;;;618777;231;26655;-73
2022/09/22 03:36:08;;;;;;;2.10;2.00;;;;;;;;;;622569;231;26605;-72
2022/09/22 03:38:38;;;;;;;2.10;1.90;;;;;;;;;;621136;231;26623;-73
2022/09/22 03:41:07;;;;;;;1.90;1.80;;;;;;;;;;620228;226;26845;-73
2022/09/22 03:43:35;;;;;;;1.80;1.70;;;;;;;;;;617646;231;26859;-73
2022/09/22 03:46:04;;;;;;;2.33;1.87;;;;;;;;;;615341;231;26580;-72
2022/09/22 03:48:33;;;;;;;1.70;1.60;;;;;;;;;;621565;231;26557;-72
2022/09/22 03:51:02;;;;;;;1.90;1.80;;;;;;;;;;614304;231;26573;-73
2022/09/22 03:53:31;;;;;;;1.95;1.85;;;;;;;;;;614416;234;26832;-72
2022/09/22 03:56:03;;;;;;;1.42;1.33;;;;;;;;;;613608;234;26560;-72
2022/09/22 03:58:32;;;;;;;1.85;1.70;;;;;;;;;;619885;231;26631;-73
2022/09/22 04:01:01;;;;;;;1.65;1.55;;;;;;;;;;613343;231;26855;-73
2022/09/22 04:03:30;;;;;;;1.92;1.83;;;;;;;;;;613421;232;26630;-72
2022/09/22 04:05:59;;;;;;;1.65;1.62;;;;;;;;;;613794;233;26845;-72
2022/09/22 04:08:28;;;;;;;1.90;1.70;;;;;;;;;;614255;230;26571;-73
2022/09/22 04:10:58;;;;;;;1.67;1.58;;;;;;;;;;615184;233;26579;-72
2022/09/22 04:13:25;;;;;;;1.77;1.67;;;;;;;;;;614111;231;26648;-72
2022/09/22 04:15:55;;;;;;;1.80;1.70;;;;;;;;;;614487;230;26659;-72
2022/09/22 04:18:24;;;;;;;1.50;1.40;;;;;;;;;;619954;231;26557;-72
2022/09/22 04:20:52;;;;;;;1.50;1.40;;;;;;;;;;619877;230;26847;-72
2022/09/22 04:23:21;;;;;;;2.15;1.90;;;;;;;;;;612954;233;26619;-67
2022/09/22 04:25:50;;;;;;;2.15;1.85;;;;;;;;;;620879;230;26814;-70
2022/09/22 04:28:19;;;;;;;2.08;1.92;;;;;;;;;;618582;230;26552;-70
2022/09/22 04:30:48;;;;;;;4.37;2.10;;;;;;;;;;615935;231;26580;-69
2022/09/22 04:33:16;;;;;;;3.78;1.83;;;;;;;;;;615964;233;26651;-69
2022/09/22 04:35:45;;;;;;;6.65;2.10;;;;;;;;;;620836;230;26574;-75
2022/09/22 04:38:14;;;;;;;4.18;2.00;;;;;;;;;;615889;231;26531;-75
2022/09/22 04:40:43;;;;;;;1.73;1.62;;;;;;;;;;618574;231;26616;-75
2022/09/22 04:43:12;;;;;;;1.60;1.50;;;;;;;;;;617219;231;26797;-75
2022/09/22 04:45:41;;;;;;;1.70;1.60;;;;;;;;;;623777;231;26541;-75
2022/09/22 04:48:10;;;;;;;1.60;1.50;;;;;;;;;;623653;231;26802;-75
2022/09/22 04:50:38;;;;;;;1.58;1.48;;;;;;;;;;623679;231;26564;-74
2022/09/22 04:53:08;;;;;;;1.62;1.52;;;;;;;;;;617916;231;26635;-73
2022/09/22 04:55:36;;;;;;;1.85;1.60;;;;;;;;;;615297;231;26824;-73
2022/09/22 04:58:06;;;;;;;1.70;1.52;;;;;;;;;;618187;231;26637;-73
2022/09/22 05:00:34;;;;;;;1.70;1.60;;;;;;;;;;615300;234;27241;-73
2022/09/22 05:03:11;;;;;;;1.70;1.60;;;;;;;;;;619142;231;26811;-73
2022/09/22 05:05:39;;;;;;;1.98;1.45;;;;;;;;;;617151;231;26549;-72
2022/09/22 05:08:09;;;;;;;1.55;1.40;;;;;;;;;;613519;231;26756;-73
2022/09/22 05:10:37;;;;;;;1.80;1.70;;;;;;;;;;620104;231;26591;-73
2022/09/22 05:13:06;;;;;;;1.60;1.50;;;;;;;;;;613010;234;26820;-73
2022/09/22 05:15:36;;;;;;;1.75;1.65;;;;;;;;;;614750;229;26579;-73
2022/09/22 05:18:04;;;;;;;1.75;1.65;;;;;;;;;;615167;230;26809;-73
2022/09/22 05:20:33;;;;;;;2.17;1.90;;;;;;;;;;613697;233;26785;-73
2022/09/22 05:23:01;;;;;;;2.75;1.67;;;;;;;;;;613320;234;26576;-73
2022/09/22 05:25:30;;;;;;;2.00;1.80;;;;;;;;;;613133;231;26876;-74
2022/09/22 05:27:59;;;;;;;2.12;1.60;;;;;;;;;;613630;233;26629;-74
2022/09/22 05:30:28;;;;;;;2.22;1.95;;;;;;;;;;616687;230;26609;-74
2022/09/22 05:32:57;;;;;;;3.67;1.92;;;;;;;;;;614462;231;26935;-74
2022/09/22 05:35:26;;;;;;;3.85;1.80;;;;;;;;;;612621;234;26580;-74
2022/09/22 05:37:55;;;;;;;2.80;1.92;;;;;;;;;;612732;233;26586;-74
2022/09/22 05:40:25;;;;;;;2.22;1.98;;;;;;;;;;612694;234;26571;-74
2022/09/22 05:42:52;;;;;;;3.10;2.00;;;;;;;;;;612688;234;26593;-74
2022/09/22 05:45:21;;;;;;;2.55;2.00;;;;;;;;;;612799;233;26816;-73
2022/09/22 05:47:50;;;;;;;2.50;2.05;;;;;;;;;;612729;233;26577;-73
2022/09/22 05:50:19;;;;;;;4.87;2.10;;;;;;;;;;612647;233;26794;-73
2022/09/22 05:52:48;;;;;;;5.28;2.50;;;;;;;;;;612385;235;26556;-73
2022/09/22 05:55:16;;;;;;;2.40;2.20;;;;;;;;;;612478;235;26637;-74
2022/09/22 05:57:46;;;;;;;5.72;2.67;;;;;;;;;;612508;235;26571;-74
2022/09/22 06:00:15;;;;;;;5.05;2.45;;;;;;;;;;612519;235;26642;-74
2022/09/22 06:02:44;;;;;;;5.50;2.50;;;;;;;;;;612551;235;26601;-74
2022/09/22 06:05:13;;;;;;;2.87;2.35;;;;;;;;;;612522;234;27125;-74
2022/09/22 06:07:41;;;;;;;4.30;2.67;;;;;;;;;;612445;234;26602;-75
2022/09/22 06:10:11;;;;;;;5.65;2.15;;;;;;;;;;612463;235;26817;-74
2022/09/22 06:12:39;;;;;;;4.07;2.47;;;;;;;;;;612432;235;26657;-74
2022/09/22 06:15:08;;;;;;;5.37;2.50;;;;;;;;;;612437;234;26564;-74
2022/09/22 06:17:37;;;;;;;5.00;2.58;;;;;;;;;;612431;235;26629;-74
2022/09/22 06:20:07;;;;;;;5.10;2.33;;;;;;;;;;612427;235;26833;-74
2022/09/22 06:22:36;;;;;;;6.20;2.40;;;;;;;;;;612781;234;26599;-74
2022/09/22 06:25:07;;;;;;;8.82;2.62;;;;;;;;;;612909;233;26780;-74
2022/09/22 06:27:33;;;;;;;2.62;2.12;;;;;;;;;;614144;232;26545;-74
2022/09/22 06:30:02;;;;;;;5.12;2.37;;;;;;;;;;614003;233;26570;-74
2022/09/22 06:32:32;;;;;;;4.70;2.58;;;;;;;;;;613705;233;26799;-74
2022/09/22 06:35:01;;;;;;;4.28;2.60;;;;;;;;;;613630;234;26543;-75
2022/09/22 06:37:28;;;;;;;4.57;2.67;;;;;;;;;;613314;234;26797;-74
2022/09/22 06:39:57;;;;;;;4.00;2.00;;;;;;;;;;613022;234;26620;-74
2022/09/22 06:42:26;;;;;;;4.10;2.20;;;;;;;;;;613044;233;26673;-74
2022/09/22 06:44:55;;;;;;;7.10;2.37;;;;;;;;;;612918;234;26561;-74
2022/09/22 06:47:24;;;;;;;4.32;2.70;;;;;;;;;;612753;233;26567;-74
2022/09/22 06:49:53;;;;;;;8.57;3.05;;;;;;;;;;612714;233;26560;-73
2022/09/22 06:52:21;;;;;;;4.53;2.75;;;;;;;;;;612723;234;26565;-75
2022/09/22 06:54:55;;;;;;;7.72;3.45;;;;;;;;;;613568;231;26790;-74
2022/09/22 06:57:19;;;;;;;6.07;2.85;;;;;;;;;;613790;233;26627;-74
2022/09/22 06:59:48;;;;;;;6.07;3.00;;;;;;;;;;616504;231;26839;-74
2022/09/22 07:02:18;;;;;;;6.70;2.80;;;;;;;;;;615351;231;26575;-74
2022/09/22 07:04:47;;;;;;;6.15;2.85;;;;;;;;;;616806;231;26616;-76
2022/09/22 07:07:15;;;;;;;4.43;2.28;;;;;;;;;;617070;231;26613;-74
2022/09/22 07:09:44;;;;;;;5.07;2.40;;;;;;;;;;619499;231;26567;-74
2022/09/22 07:12:12;;;;;;;11.25;2.65;;;;;;;;;;621048;231;26632;-70
2022/09/22 07:14:42;;;;;;;12.60;3.05;;;;;;;;;;621147;231;26612;-70
2022/09/22 07:17:10;;;;;;;3.87;2.00;;;;;;;;;;621053;231;26596;-72
2022/09/22 07:19:39;;;;;;;6.90;2.05;;;;;;;;;;621138;231;26580;-70
2022/09/22 07:22:08;;;;;;;3.03;2.15;;;;;;;;;;617592;231;26573;-70
2022/09/22 07:24:37;;;;;;;4.43;2.33;;;;;;;;;;617025;231;26892;-70
2022/09/22 07:27:06;;;;;;;8.32;2.97;;;;;;;;;;617423;227;26846;-71
2022/09/22 07:29:35;;;;;;;4.50;2.30;;;;;;;;;;618679;231;26638;-71
2022/09/22 07:32:04;;;;;;;2.85;2.03;;;;;;;;;;616155;228;26787;-71
2022/09/22 07:34:33;;;;;;;4.78;2.33;;;;;;;;;;616922;231;26581;-70
2022/09/22 07:37:02;;;;;;;2.92;1.80;;;;;;;;;;615729;231;26835;-70
2022/09/22 07:39:31;;;;;;;4.10;2.25;;;;;;;;;;620066;229;26655;-70
2022/09/22 07:41:59;;;;;;;4.32;2.42;;;;;;;;;;620002;230;26802;-69
2022/09/22 07:47:03;;;;;;;2.55;1.87;;;;;;;;;;616848;231;26844;-70
2022/09/22 07:49:32;;;;;;;3.83;2.20;;;;;;;;;;616451;228;26671;-70
2022/09/22 07:52:01;;;;;;;5.78;2.33;;;;;;;;;;617846;230;26610;-69
2022/09/22 07:54:32;;;;;;;3.08;2.00;;;;;;;;;;614469;228;26851;-69
2022/09/22 07:57:01;;;;;;;5.60;2.05;;;;;;;;;;614610;231;26610;-70
2022/09/22 07:59:28;;;;;;;3.67;2.17;;;;;;;;;;617226;230;26563;-70
2022/09/22 08:01:58;;;;;;;5.12;2.20;;;;;;;;;;617028;230;26557;-70
2022/09/22 08:04:30;;;;;;;4.15;2.37;;;;;;;;;;616600;228;26678;-69
2022/09/22 08:06:55;;;;;;;6.65;2.33;;;;;;;;;;617061;230;26788;-69
2022/09/22 08:09:24;;;;;;;3.85;2.30;;;;;;;;;;617139;230;26607;-70
2022/09/22 08:11:52;;;;;;;4.00;2.65;;;;;;;;;;615119;231;26611;-71
2022/09/22 08:14:22;;;;;;;5.55;2.42;;;;;;;;;;615543;230;26547;-70
2022/09/22 08:16:52;;;;;;;7.50;2.30;;;;;;;;;;616749;231;26655;-70
2022/09/22 08:19:20;;;;;;;4.93;2.45;;;;;;;;;;616661;231;26608;-70
2022/09/22 08:21:48;;;;;;;4.18;2.42;;;;;;;;;;614932;231;26573;-70
2022/09/22 08:24:20;;;;;;;5.30;2.40;;;;;;;;;;615092;231;26802;-67
2022/09/22 08:26:49;;;;;;;8.18;2.78;;;;;;;;;;614121;231;26882;-69
2022/09/22 08:29:18;;;;;;;9.43;2.72;;;;;;;;;;614912;228;26576;-69
2022/09/22 08:31:46;;;;;;;4.90;2.20;;;;;;;;;;616796;231;26628;-69
2022/09/22 08:34:16;;;;;;;6.75;2.45;;;;;;;;;;617408;231;26656;-69
2022/09/22 08:36:45;;;;;;;3.62;2.05;;;;;;;;;;614672;231;26568;-69
2022/09/22 08:39:13;;;;;;;4.75;2.22;;;;;;;;;;614732;231;26798;-69
2022/09/22 08:41:57;;;;;;;5.28;1.98;;;;;;;;;;614006;231;26581;-69
2022/09/22 08:44:27;;;;;;;6.78;2.22;;;;;;;;;;614841;234;26601;-68
2022/09/22 08:46:55;;;;;;;5.85;1.90;;;;;;;;;;613097;228;26537;-67
2022/09/22 08:52:04;;;;;;;6.57;2.08;;;;;;;;;;616084;233;26568;-68
2022/09/22 08:54:34;;;;;;;6.12;2.00;;;;;;;;;;614169;231;26563;-68
2022/09/22 08:57:02;;;;;;;6.43;2.03;;;;;;;;;;619169;231;26564;-68
2022/09/22 08:59:32;;;;;;;3.50;2.50;;;;;;;;;;614198;233;26651;-68
2022/09/22 09:02:19;;;;;;;2.70;2.08;;;;;;;;;;620133;231;26596;-68
2022/09/22 09:04:52;;;;;;;2.30;1.70;;;;;;;;;;612886;233;26637;-68
2022/09/22 09:07:23;;;;;;;2.10;1.90;;;;;;;;;;613974;233;26631;-68
2022/09/22 09:10:03;;;;;;;2.28;2.00;;;;;;;;;;617972;231;26799;-68
2022/09/22 09:12:33;;;;;;;5.47;2.50;;;;;;;;;;616231;230;26586;-68
2022/09/22 09:15:06;;;;;;;3.55;2.20;;;;;;;;;;614445;233;26655;-68
2022/09/22 09:17:35;;;;;;;2.90;1.95;;;;;;;;;;613508;233;26588;-68
2022/09/22 09:20:10;;;;;;;2.78;1.70;;;;;;;;;;621479;231;26561;-69
2022/09/22 09:22:39;;;;;;;2.25;1.73;;;;;;;;;;613405;228;26579;-69
2022/09/22 09:25:08;;;;;;;2.05;1.80;;;;;;;;;;614695;232;26627;-69
2022/09/22 09:27:38;;;;;;;1.60;1.48;;;;;;;;;;614150;231;27229;-69
2022/09/22 09:30:10;;;;;;;3.37;1.62;;;;;;;;;;616100;231;26827;-61
2022/09/22 09:32:42;;;;;;;2.83;2.00;;;;;;;;;;613682;231;26661;-61
2022/09/22 09:35:11;;;;;;;3.95;2.00;;;;;;;;;;618462;231;26550;-62
2022/09/22 09:37:40;;;;;;;435.15;44.90;;;;;;;;;;617592;231;26575;-62
2022/09/22 09:40:09;;;;;;;1999.90;573.70;;;;;;;;;;601793;235;26789;-63
2022/09/22 09:42:38;;;;;;;1999.90;678.10;;;;;;;;;;615300;234;27034;-61
2022/09/22 09:45:08;;;;;;;1999.90;739.60;;;;;;;;;;613789;234;26552;-61
2022/09/22 09:47:39;;;;;;;1999.90;389.73;;;;;;;;;;616758;231;26574;-62
2022/09/22 09:50:08;;;;;;;589.17;45.67;;;;;;;;;;614011;231;26605;-64
2022/09/22 09:52:37;;;;;;;11.40;6.20;;;;;;;;;;614918;234;26948;-60
2022/09/22 09:55:06;;;;;;;15.00;7.50;;;;;;;;;;613428;234;26870;-59
2022/09/22 09:57:34;;;;;;;12.68;6.50;;;;;;;;;;617776;231;26568;-60
2022/09/22 10:02:48;;;;;;;11.82;6.12;;;;;;;;;;618520;229;26890;-60
2022/09/22 10:05:19;;;;;;;21.83;8.27;;;;;;;;;;618556;226;26805;-59
2022/09/22 10:07:48;;;;;;;13.18;6.30;;;;;;;;;;619116;231;26583;-59
2022/09/22 10:10:23;;;;;;;20.80;8.60;;;;;;;;;;614121;231;26532;-60
2022/09/22 10:12:52;;;;;;;10.90;4.62;;;;;;;;;;617529;231;26581;-60
2022/09/22 10:15:22;;;;;;;7.37;4.00;;;;;;;;;;617819;231;26606;-60
2022/09/22 10:17:50;;;;;;;9.05;4.72;;;;;;;;;;615018;233;26576;-60
2022/09/22 10:20:21;;;;;;;8.20;4.35;;;;;;;;;;615775;232;26607;-60
2022/09/22 10:22:50;;;;;;;7.50;4.12;;;;;;;;;;613393;233;26584;-61
2022/09/22 10:25:21;;;;;;;13.98;5.43;;;;;;;;;;614509;233;26863;-60
2022/09/22 10:27:56;;;;;;;5.55;3.62;;;;;;;;;;614711;233;27067;-60
2022/09/22 10:30:26;;;;;;;9.23;3.87;;;;;;;;;;620176;231;26819;-60
2022/09/22 10:32:58;;;;;;;8.93;3.55;;;;;;;;;;613521;233;26831;-60
2022/09/22 10:35:27;;;;;;;4.30;2.95;;;;;;;;;;613906;233;26615;-60
2022/09/22 10:37:56;;;;;;;5.47;3.05;;;;;;;;;;614682;233;26867;-60
2022/09/22 10:40:24;;;;;;;5.47;3.53;;;;;;;;;;612874;234;26637;-60
2022/09/22 10:42:55;;;;;;;6.80;3.30;;;;;;;;;;617061;231;26618;-60
2022/09/22 10:45:23;;;;;;;4.82;2.70;;;;;;;;;;616973;231;26612;-61
2022/09/22 10:47:56;;;;;;;5.97;2.42;;;;;;;;;;617527;231;26835;-61
2022/09/22 10:50:26;;;;;;;5.72;2.30;;;;;;;;;;622900;231;26557;-61
2022/09/22 10:52:54;;;;;;;4.57;2.42;;;;;;;;;;613403;234;26617;-61
2022/09/22 10:55:26;;;;;;;6.12;2.30;;;;;;;;;;616843;231;26557;-61
2022/09/22 10:58:09;;;;;;;3.15;2.03;;;;;;;;;;615901;231;26623;-61
2022/09/22 11:00:38;;;;;;;2.28;1.98;;;;;;;;;;621345;231;26590;-61
2022/09/22 11:03:10;;;;;;;2.72;2.17;;;;;;;;;;613507;234;26806;-60
2022/09/22 11:13:31;;;;;;;4.50;1.70;;;;;;;;;;619511;231;26553;-60
2022/09/22 11:16:02;;;;;;;2.15;1.62;;;;;;;;;;617236;230;27237;-59
2022/09/22 11:18:48;;;;;;;3.28;2.20;;;;;;;;;;617425;231;26773;-59
2022/09/22 11:21:17;;;;;;;3.65;1.90;;;;;;;;;;610788;233;26800;-59
2022/09/22 11:23:46;;;;;;;3.08;1.98;;;;;;;;;;614613;233;26581;-60
2022/09/22 11:26:23;;;;;;;2.70;1.87;;;;;;;;;;613085;233;26607;-60
2022/09/22 11:28:53;;;;;;;2.85;1.92;;;;;;;;;;621446;231;26558;-67
2022/09/22 11:31:22;;;;;;;2.20;2.00;;;;;;;;;;616952;231;26720;-69
2022/09/22 11:34:05;;;;;;;3.12;2.37;;;;;;;;;;615823;231;26585;-69
2022/09/22 11:36:40;;;;;;;3.87;2.45;;;;;;;;;;613300;231;26573;-69
2022/09/22 11:39:24;;;;;;;3.55;2.10;;;;;;;;;;614159;233;26652;-69
2022/09/22 11:41:55;;;;;;;5.87;2.33;;;;;;;;;;613765;233;26850;-69
2022/09/22 11:44:27;;;;;;;2.65;1.92;;;;;;;;;;619958;231;26555;-69
2022/09/22 11:47:02;;;;;;;4.15;2.70;;;;;;;;;;613454;233;26832;-69
2022/09/22 11:49:33;;;;;;;7.07;4.22;;;;;;;;;;617862;231;26567;-69
2022/09/22 11:52:03;;;;;;;8.25;3.08;;;;;;;;;;614023;231;26841;-69
2022/09/22 11:54:33;;;;;;;5.03;3.40;;;;;;;;;;614413;234;26674;-69
2022/09/22 11:57:02;;;;;;;5.37;3.25;;;;;;;;;;611817;231;26641;-69
2022/09/22 11:59:37;;;;;;;4.78;2.42;;;;;;;;;;616770;231;26894;-69
2022/09/22 12:02:19;;;;;;;8.85;3.65;;;;;;;;;;616370;231;26605;-69
2022/09/22 12:04:48;;;;;;;4.82;2.50;;;;;;;;;;619109;231;26632;-68
2022/09/22 12:07:17;;;;;;;5.20;2.60;;;;;;;;;;612446;234;26791;-69
2022/09/22 12:09:47;;;;;;;2.78;2.25;;;;;;;;;;614013;234;26553;-69
2022/09/22 12:12:16;;;;;;;5.28;2.85;;;;;;;;;;612669;234;26574;-69
2022/09/22 12:14:48;;;;;;;8.32;3.30;;;;;;;;;;616607;231;26578;-68
2022/09/22 12:17:17;;;;;;;2.87;2.00;;;;;;;;;;621761;231;26842;-68
2022/09/22 12:19:51;;;;;;;2.50;1.67;;;;;;;;;;621742;231;26626;-69
2022/09/22 12:22:21;;;;;;;7.10;2.35;;;;;;;;;;613767;231;26587;-68
2022/09/22 12:24:50;;;;;;;3.12;2.30;;;;;;;;;;615740;231;26545;-69
2022/09/22 12:27:20;;;;;;;3.87;1.90;;;;;;;;;;617482;231;26616;-69
2022/09/22 12:29:53;;;;;;;2.87;2.10;;;;;;;;;;616392;231;26576;-68
2022/09/22 12:32:23;;;;;;;3.28;2.15;;;;;;;;;;620528;231;26823;-69
2022/09/22 12:34:51;;;;;;;6.20;2.12;;;;;;;;;;613679;233;26623;-68
2022/09/22 12:37:20;;;;;;;3.30;2.20;;;;;;;;;;614511;233;26626;-69
2022/09/22 12:39:49;;;;;;;4.10;2.50;;;;;;;;;;614811;233;26845;-68
2022/09/22 12:42:20;;;;;;;4.57;2.53;;;;;;;;;;613456;233;26604;-68
2022/09/22 12:44:51;;;;;;;4.50;2.70;;;;;;;;;;616931;231;26628;-69
2022/09/22 12:47:22;;;;;;;6.90;3.08;;;;;;;;;;617463;231;26552;-68
2022/09/22 12:49:59;;;;;;;4.18;2.62;;;;;;;;;;614321;233;26572;-68
2022/09/22 12:52:33;;;;;;;3.72;2.78;;;;;;;;;;613317;232;26870;-69
2022/09/22 12:55:08;;;;;;;5.05;2.70;;;;;;;;;;614923;233;26616;-68
2022/09/22 12:57:37;;;;;;;2.85;2.45;;;;;;;;;;614426;233;26801;-69
2022/09/22 13:00:06;;;;;;;4.90;2.65;;;;;;;;;;613245;233;26572;-68
2022/09/22 13:02:39;;;;;;;5.40;2.72;;;;;;;;;;614839;234;26576;-69
2022/09/22 13:05:15;;;;;;;4.65;2.60;;;;;;;;;;613595;234;26809;-69
2022/09/22 13:07:44;;;;;;;5.75;2.72;;;;;;;;;;615400;233;27099;-68
2022/09/22 13:10:28;;;;;;;6.00;2.55;;;;;;;;;;619981;231;26558;-69
2022/09/22 13:13:14;;;;;;;6.03;2.90;;;;;;;;;;619948;230;26558;-69
2022/09/22 13:15:58;;;;;;;5.32;2.60;;;;;;;;;;614360;233;26857;-69
2022/09/22 13:18:34;;;;;;;3.58;2.10;;;;;;;;;;612887;233;26627;-69
2022/09/22 13:21:02;;;;;;;13.68;3.80;;;;;;;;;;614627;234;26849;-68
2022/09/22 13:23:31;;;;;;;9.20;3.33;;;;;;;;;;615990;231;26641;-66
2022/09/22 13:26:05;;;;;;;7.00;3.37;;;;;;;;;;621371;231;26660;-68
2022/09/22 13:28:34;;;;;;;5.78;3.28;;;;;;;;;;621297;231;26622;-68
2022/09/22 13:31:03;;;;;;;17.23;3.97;;;;;;;;;;621068;231;26821;-68
2022/09/22 13:33:32;;;;;;;9.30;3.53;;;;;;;;;;620615;231;26594;-68
2022/09/22 13:36:01;;;;;;;5.15;2.90;;;;;;;;;;621539;229;26630;-68
2022/09/22 13:38:30;;;;;;;5.85;3.30;;;;;;;;;;622290;231;26586;-68
2022/09/22 13:40:59;;;;;;;5.93;2.55;;;;;;;;;;621952;231;27302;-68
2022/09/22 13:43:28;;;;;;;10.43;3.12;;;;;;;;;;622051;231;26581;-68
2022/09/22 13:45:58;;;;;;;5.25;2.37;;;;;;;;;;621936;231;26604;-68
2022/09/22 13:48:26;;;;;;;4.00;2.87;;;;;;;;;;622085;231;26813;-68
2022/09/22 13:50:55;;;;;;;3.60;2.60;;;;;;;;;;621960;231;26535;-68
2022/09/22 13:53:24;;;;;;;4.90;2.72;;;;;;;;;;621956;231;26884;-67
2022/09/22 13:55:53;;;;;;;9.13;2.60;;;;;;;;;;618631;230;26554;-69
2022/09/22 13:58:22;;;;;;;5.12;2.80;;;;;;;;;;615182;231;26778;-69
2022/09/22 14:00:52;;;;;;;7.12;3.08;;;;;;;;;;614396;231;26532;-69
2022/09/22 14:03:21;;;;;;;6.25;2.00;;;;;;;;;;615192;227;26563;-68
2022/09/22 14:05:50;;;;;;;4.65;2.37;;;;;;;;;;614927;233;26527;-68
2022/09/22 14:08:19;;;;;;;3.65;2.17;;;;;;;;;;618785;228;26557;-68
2022/09/22 14:10:48;;;;;;;4.40;2.70;;;;;;;;;;614830;230;27271;-66
2022/09/22 14:13:32;;;;;;;9.32;3.45;;;;;;;;;;619178;231;26643;-66
2022/09/22 14:16:01;;;;;;;6.43;2.97;;;;;;;;;;615555;231;26635;-68
2022/09/22 14:18:30;;;;;;;3.42;2.70;;;;;;;;;;614304;231;26791;-68
2022/09/22 14:20:58;;;;;;;6.07;2.53;;;;;;;;;;613176;231;26632;-69
2022/09/22 14:23:27;;;;;;;3.70;2.33;;;;;;;;;;619456;231;26984;-70
2022/09/22 14:25:56;;;;;;;3.35;2.30;;;;;;;;;;614601;231;26564;-70
2022/09/22 14:28:25;;;;;;;6.40;2.45;;;;;;;;;;615069;234;26574;-70
2022/09/22 14:30:54;;;;;;;6.18;2.17;;;;;;;;;;614404;228;26569;-69
2022/09/22 14:33:24;;;;;;;3.85;2.33;;;;;;;;;;615374;231;26574;-69
2022/09/22 14:35:58;;;;;;;3.65;2.20;;;;;;;;;;614829;231;26570;-68
2022/09/22 14:38:27;;;;;;;3.62;2.17;;;;;;;;;;615530;231;26818;-69
2022/09/22 14:40:57;;;;;;;5.65;2.33;;;;;;;;;;622620;231;26631;-69
2022/09/22 14:43:25;;;;;;;4.60;2.35;;;;;;;;;;616878;231;26813;-69
2022/09/22 14:45:57;;;;;;;4.30;2.35;;;;;;;;;;612636;234;26568;-69
2022/09/22 14:48:29;;;;;;;7.37;2.55;;;;;;;;;;616304;231;26595;-69
2022/09/22 14:50:58;;;;;;;5.18;2.30;;;;;;;;;;615014;231;26618;-69
2022/09/22 14:53:27;;;;;;;3.67;2.22;;;;;;;;;;615744;233;26921;-70
2022/09/22 14:55:59;;;;;;;2.60;2.17;;;;;;;;;;613585;233;26567;-69
2022/09/22 14:58:28;;;;;;;4.43;2.22;;;;;;;;;;617645;230;26843;-70
2022/09/22 15:03:34;;;;;;;2.40;1.80;;;;;;;;;;615650;233;26806;-70
2022/09/22 15:06:06;;;;;;;2.60;1.80;;;;;;;;;;613534;233;26589;-69
2022/09/22 15:08:35;;;;;;;3.22;1.83;;;;;;;;;;616271;231;26602;-69
2022/09/22 15:11:04;;;;;;;2.65;1.85;;;;;;;;;;615331;231;26531;-69
2022/09/22 15:13:38;;;;;;;3.17;1.70;;;;;;;;;;614495;231;26843;-69
2022/09/22 15:16:06;;;;;;;2.45;1.67;;;;;;;;;;616548;231;26617;-69